createdAt,value
2018-11-29T00:00:38.229Z,-78
2018-11-29T00:03:11.130Z,-78
2018-11-29T00:05:41.943Z,-78
2018-11-29T00:08:12.255Z,-78
2018-11-29T00:10:42.548Z,-78
2018-11-29T00:13:12.868Z,-78
2018-11-29T00:15:43.161Z,-78
2018-11-29T00:18:13.459Z,-78
2018-11-29T00:20:43.712Z,-78
2018-11-29T00:23:14.013Z,-78
2018-11-29T00:25:44.288Z,-78
2018-11-29T00:28:14.577Z,-78
2018-11-29T00:30:44.860Z,-78
2018-11-29T00:33:15.169Z,-78
2018-11-29T00:35:45.452Z,-78
2018-11-29T00:38:16.951Z,-78
2018-11-29T00:40:47.276Z,-78
2018-11-29T00:43:17.754Z,-78
2018-11-29T00:45:48.028Z,-78
2018-11-29T00:48:18.407Z,-78
2018-11-29T00:50:49.039Z,-78
2018-11-29T00:53:19.343Z,-78
2018-11-29T00:55:49.989Z,-78
2018-11-29T00:58:20.312Z,-78
2018-11-29T01:00:50.673Z,-78
2018-11-29T01:03:21.073Z,-78
2018-11-29T01:05:51.716Z,-78
2018-11-29T01:08:22.060Z,-78
2018-11-29T01:10:52.338Z,-78
2018-11-29T01:13:23.008Z,-78
2018-11-29T01:15:53.260Z,-78
2018-11-29T01:18:23.568Z,-78
2018-11-29T01:20:54.077Z,-78
2018-11-29T01:23:24.371Z,-78
2018-11-29T01:25:54.955Z,-78
2018-11-29T01:28:25.245Z,-78
2018-11-29T01:30:55.520Z,-78
2018-11-29T01:33:25.797Z,-78
2018-11-29T01:35:56.297Z,-77
2018-11-29T01:38:26.563Z,-78
2018-11-29T01:40:57.231Z,-78
2018-11-29T01:43:27.533Z,-78
2018-11-29T01:45:58.135Z,-78
2018-11-29T01:48:28.429Z,-78
2018-11-29T01:50:58.976Z,-78
2018-11-29T01:53:29.294Z,-78
2018-11-29T01:56:00.029Z,-78
2018-11-29T01:58:30.388Z,-78
2018-11-29T02:01:00.879Z,-78
2018-11-29T02:03:31.216Z,-78
2018-11-29T02:06:01.937Z,-78
2018-11-29T02:08:32.273Z,-78
2018-11-29T02:11:03.190Z,-78
2018-11-29T02:13:33.610Z,-78
2018-11-29T02:16:03.933Z,-78
2018-11-29T02:18:35.628Z,-77
2018-11-29T02:21:06.706Z,-77
2018-11-29T02:23:37.069Z,-77
2018-11-29T02:26:07.511Z,-77
2018-11-29T02:28:37.816Z,-77
2018-11-29T02:31:08.444Z,-77
2018-11-29T02:33:38.761Z,-79
2018-11-29T02:36:09.129Z,-77
2018-11-29T02:38:39.443Z,-77
2018-11-29T02:41:10.057Z,-77
2018-11-29T02:43:40.361Z,-77
2018-11-29T02:46:10.668Z,-77
2018-11-29T02:48:40.958Z,-77
2018-11-29T02:51:11.232Z,-77
2018-11-29T02:53:41.519Z,-77
2018-11-29T02:56:11.757Z,-77
2018-11-29T02:58:42.070Z,-77
2018-11-29T03:01:12.316Z,-77
2018-11-29T03:03:42.620Z,-77
2018-11-29T03:06:12.910Z,-77
2018-11-29T03:08:43.189Z,-77
2018-11-29T03:11:13.440Z,-77
2018-11-29T03:13:43.717Z,-78
2018-11-29T03:16:14.024Z,-77
2018-11-29T03:18:44.324Z,-77
2018-11-29T03:21:14.568Z,-77
2018-11-29T03:23:44.836Z,-77
2018-11-29T03:26:15.113Z,-77
2018-11-29T03:28:45.403Z,-77
2018-11-29T03:31:15.646Z,-77
2018-11-29T03:33:48.905Z,-77
2018-11-29T03:36:19.231Z,-77
2018-11-29T03:38:49.522Z,-77
2018-11-29T03:41:19.824Z,-77
2018-11-29T03:43:50.124Z,-77
2018-11-29T03:46:20.732Z,-77
2018-11-29T03:48:51.308Z,-77
2018-11-29T03:51:21.585Z,-77
2018-11-29T03:53:51.899Z,-77
2018-11-29T03:56:22.214Z,-77
2018-11-29T03:58:53.089Z,-77
2018-11-29T04:01:23.375Z,-77
2018-11-29T04:03:54.185Z,-77
2018-11-29T04:06:24.659Z,-77
2018-11-29T04:08:55.921Z,-77
2018-11-29T04:11:26.196Z,-77
2018-11-29T04:13:56.656Z,-77
2018-11-29T04:16:26.976Z,-77
2018-11-29T04:18:57.498Z,-77
2018-11-29T04:21:27.804Z,-77
2018-11-29T04:23:58.231Z,-77
2018-11-29T04:26:28.670Z,-77
2018-11-29T04:28:59.080Z,-77
2018-11-29T04:31:29.341Z,-77
2018-11-29T04:34:00.104Z,-78
2018-11-29T04:36:30.439Z,-77
2018-11-29T04:39:01.037Z,-77
2018-11-29T04:41:31.369Z,-77
2018-11-29T04:44:01.992Z,-77
2018-11-29T04:46:51.476Z,-77
2018-11-29T04:49:21.804Z,-77
2018-11-29T04:51:52.087Z,-79
2018-11-29T04:54:22.417Z,-77
2018-11-29T04:56:52.764Z,-77
2018-11-29T04:59:23.245Z,-77
2018-11-29T05:01:53.859Z,-77
2018-11-29T05:04:24.187Z,-77
2018-11-29T05:06:54.989Z,-77
2018-11-29T05:09:25.746Z,-77
2018-11-29T05:11:56.021Z,-77
2018-11-29T05:14:26.416Z,-77
2018-11-29T05:16:57.275Z,-77
2018-11-29T05:19:28.001Z,-77
2018-11-29T05:21:58.404Z,-77
2018-11-29T05:24:28.857Z,-77
2018-11-29T05:26:59.156Z,-77
2018-11-29T05:29:29.757Z,-77
2018-11-29T05:32:00.060Z,-77
2018-11-29T05:34:30.329Z,-77
2018-11-29T05:37:01.120Z,-77
2018-11-29T05:39:31.416Z,-79
2018-11-29T05:42:02.089Z,-78
2018-11-29T05:44:32.412Z,-78
2018-11-29T05:47:02.877Z,-78
2018-11-29T05:49:33.185Z,-78
2018-11-29T05:52:03.447Z,-78
2018-11-29T05:54:33.745Z,-78
2018-11-29T05:57:04.017Z,-78
2018-11-29T05:59:34.332Z,-78
2018-11-29T06:02:05.363Z,-78
2018-11-29T06:04:35.832Z,-78
2018-11-29T06:07:06.217Z,-78
2018-11-29T06:09:37.276Z,-78
2018-11-29T06:12:07.577Z,-78
2018-11-29T06:14:37.897Z,-78
2018-11-29T06:17:08.232Z,-78
2018-11-29T06:19:38.757Z,-78
2018-11-29T06:22:09.048Z,-78
2018-11-29T06:24:40.616Z,-78
2018-11-29T06:27:11.325Z,-78
2018-11-29T06:29:41.640Z,-78
2018-11-29T06:32:11.988Z,-77
2018-11-29T06:34:42.309Z,-77
2018-11-29T06:37:12.999Z,-77
2018-11-29T06:39:43.320Z,-77
2018-11-29T06:42:13.599Z,-77
2018-11-29T06:44:43.938Z,-78
2018-11-29T06:47:14.313Z,-78
2018-11-29T06:49:44.636Z,-77
2018-11-29T06:52:14.922Z,-78
2018-11-29T06:54:45.245Z,-78
2018-11-29T06:57:15.515Z,-77
2018-11-29T06:59:45.826Z,-77
2018-11-29T07:02:16.152Z,-77
2018-11-29T07:04:46.508Z,-80
2018-11-29T07:07:17.145Z,-80
2018-11-29T07:09:47.451Z,-81
2018-11-29T07:12:18.599Z,-79
2018-11-29T07:14:49.742Z,-80
2018-11-29T07:17:20.029Z,-79
2018-11-29T07:19:50.356Z,-80
2018-11-29T07:22:20.681Z,-81
2018-11-29T07:24:51.034Z,-80
2018-11-29T07:27:21.300Z,-80
2018-11-29T07:29:51.615Z,-79
2018-11-29T07:32:25.076Z,-81
2018-11-29T07:34:55.369Z,-80
2018-11-29T07:37:25.858Z,-80
2018-11-29T07:39:56.182Z,-80
2018-11-29T07:42:27.061Z,-80
2018-11-29T07:44:58.119Z,-79
2018-11-29T07:47:28.656Z,-80
2018-11-29T07:49:58.977Z,-80
2018-11-29T07:52:29.300Z,-79
2018-11-29T07:55:00.095Z,-79
2018-11-29T07:57:30.362Z,-79
2018-11-29T08:00:00.727Z,-79
2018-11-29T08:02:31.138Z,-81
2018-11-29T08:05:01.441Z,-80
2018-11-29T08:07:31.768Z,-79
2018-11-29T08:10:02.113Z,-79
2018-11-29T08:12:32.441Z,-79
2018-11-29T08:15:03.052Z,-78
2018-11-29T08:17:33.356Z,-79
2018-11-29T08:20:04.108Z,-79
2018-11-29T08:22:34.376Z,-79
2018-11-29T08:25:04.745Z,-79
2018-11-29T08:27:35.044Z,-79
2018-11-29T08:30:15.326Z,-78
2018-11-29T08:32:45.603Z,-78
2018-11-29T08:35:16.785Z,-78
2018-11-29T08:37:48.004Z,-79
2018-11-29T08:40:22.076Z,-82
2018-11-29T08:42:52.372Z,-81
2018-11-29T08:45:22.696Z,-81
2018-11-29T08:47:53.017Z,-81
2018-11-29T08:50:23.348Z,-81
2018-11-29T08:52:53.614Z,-81
2018-11-29T08:55:23.919Z,-81
2018-11-29T08:57:54.243Z,-82
2018-11-29T09:00:24.585Z,-81
2018-11-29T09:02:54.869Z,-81
2018-11-29T09:05:25.183Z,-81
2018-11-29T09:07:55.973Z,-81
2018-11-29T09:10:31.590Z,-81
2018-11-29T09:12:57.030Z,-81
2018-11-29T09:15:27.260Z,-82
2018-11-29T09:17:58.045Z,-81
2018-11-29T09:20:28.308Z,-82
2018-11-29T09:22:59.234Z,-82
2018-11-29T09:25:30.084Z,-81
2018-11-29T09:28:00.368Z,-81
2018-11-29T09:30:30.812Z,-81
2018-11-29T09:33:01.185Z,-81
2018-11-29T09:35:31.523Z,-81
2018-11-29T09:38:01.918Z,-82
2018-11-29T09:40:32.241Z,-81
2018-11-29T09:43:02.716Z,-81
2018-11-29T09:45:32.984Z,-81
2018-11-29T09:48:03.301Z,-81
2018-11-29T09:50:33.573Z,-81
2018-11-29T09:53:04.045Z,-81
2018-11-29T09:55:34.533Z,-81
2018-11-29T09:58:04.840Z,-81
2018-11-29T10:00:35.212Z,-81
2018-11-29T10:03:09.624Z,-81
2018-11-29T10:05:40.805Z,-81
2018-11-29T10:08:13.088Z,-81
2018-11-29T10:10:43.401Z,-81
2018-11-29T10:13:13.786Z,-81
2018-11-29T10:15:44.113Z,-81
2018-11-29T10:18:14.356Z,-81
2018-11-29T10:20:44.652Z,-81
2018-11-29T10:23:15.292Z,-81
2018-11-29T10:25:45.592Z,-82
2018-11-29T10:28:17.055Z,-81
2018-11-29T10:31:02.069Z,-81
2018-11-29T10:33:32.423Z,-82
2018-11-29T10:36:02.693Z,-81
2018-11-29T10:38:33.037Z,-81
2018-11-29T10:41:03.507Z,-81
2018-11-29T10:43:33.799Z,-81
2018-11-29T10:46:04.717Z,-81
2018-11-29T10:48:35.061Z,-81
2018-11-29T10:51:06.181Z,-81
2018-11-29T10:53:38.078Z,-81
2018-11-29T10:56:07.048Z,-81
2018-11-29T10:58:38.074Z,-81
2018-11-29T11:01:13.676Z,-81
2018-11-29T11:03:44.165Z,-80
2018-11-29T11:06:15.100Z,-81
2018-11-29T11:08:45.429Z,-81
2018-11-29T11:11:15.914Z,-81
2018-11-29T11:13:46.244Z,-81
2018-11-29T11:16:16.556Z,-81
2018-11-29T11:18:46.870Z,-81
2018-11-29T11:21:17.161Z,-81
2018-11-29T11:23:47.471Z,-81
2018-11-29T11:26:17.749Z,-81
2018-11-29T11:28:48.080Z,-81
2018-11-29T11:31:18.334Z,-81
2018-11-29T11:33:48.672Z,-81
2018-11-29T11:36:19.264Z,-80
2018-11-29T11:38:49.624Z,-81
2018-11-29T11:41:19.857Z,-80
2018-11-29T11:43:50.173Z,-81
2018-11-29T11:46:20.489Z,-80
2018-11-29T11:48:51.040Z,-81
2018-11-29T11:51:21.912Z,-81
2018-11-29T11:53:52.909Z,-80
2018-11-29T11:56:23.326Z,-80
2018-11-29T11:58:53.673Z,-81
2018-11-29T12:01:24.048Z,-80
2018-11-29T12:03:54.398Z,-80
2018-11-29T12:06:24.775Z,-80
2018-11-29T12:08:55.180Z,-80
2018-11-29T12:11:25.525Z,-80
2018-11-29T12:13:55.785Z,-80
2018-11-29T12:16:26.404Z,-81
2018-11-29T12:19:02.048Z,-80
2018-11-29T12:21:26.981Z,-80
2018-11-29T12:23:57.286Z,-81
2018-11-29T12:26:27.565Z,-80
2018-11-29T12:28:57.893Z,-80
2018-11-29T12:31:28.192Z,-80
2018-11-29T12:33:58.904Z,-81
2018-11-29T12:36:29.273Z,-81
2018-11-29T12:38:59.949Z,-81
2018-11-29T12:41:30.354Z,-81
2018-11-29T12:44:01.005Z,-81
2018-11-29T12:46:31.440Z,-82
2018-11-29T12:49:01.975Z,-82
2018-11-29T12:51:33.425Z,-81
2018-11-29T12:54:04.158Z,-81
2018-11-29T12:56:34.429Z,-81
2018-11-29T12:59:04.747Z,-81
2018-11-29T13:01:35.219Z,-81
2018-11-29T13:04:05.748Z,-82
2018-11-29T13:06:36.029Z,-81
2018-11-29T13:09:10.841Z,-82
2018-11-29T13:11:41.117Z,-81
2018-11-29T13:14:11.525Z,-81
2018-11-29T13:16:41.715Z,-82
2018-11-29T13:19:12.073Z,-81
2018-11-29T13:21:42.353Z,-81
2018-11-29T13:24:12.633Z,-81
2018-11-29T13:26:42.940Z,-81
2018-11-29T13:29:13.243Z,-81
2018-11-29T13:31:43.559Z,-82
2018-11-29T13:34:13.833Z,-82
2018-11-29T13:36:44.191Z,-82
2018-11-29T13:39:14.510Z,-81
2018-11-29T13:41:44.763Z,-81
2018-11-29T13:44:15.242Z,-81
2018-11-29T13:46:45.665Z,-81
2018-11-29T13:49:16.070Z,-84
2018-11-29T13:51:46.349Z,-82
2018-11-29T13:54:16.949Z,-82
2018-11-29T13:56:47.246Z,-81
2018-11-29T13:59:17.545Z,-81
2018-11-29T14:01:47.809Z,-81
2018-11-29T14:04:18.201Z,-81
2018-11-29T14:06:48.528Z,-81
2018-11-29T14:09:19.060Z,-83
2018-11-29T14:11:49.327Z,-83
2018-11-29T14:14:19.714Z,-83
2018-11-29T14:16:50.064Z,-83
2018-11-29T14:19:20.411Z,-83
2018-11-29T14:21:51.324Z,-83
2018-11-29T14:24:20.952Z,-83
2018-11-29T14:26:51.254Z,-83
2018-11-29T14:29:21.570Z,-83
2018-11-29T14:31:51.818Z,-83
2018-11-29T14:34:22.111Z,-82
2018-11-29T14:36:52.393Z,-82
2018-11-29T14:39:23.113Z,-83
2018-11-29T14:41:54.188Z,-82
2018-11-29T14:44:24.485Z,-82
2018-11-29T14:46:54.811Z,-82
2018-11-29T14:49:25.120Z,-83
2018-11-29T14:51:55.405Z,-83
2018-11-29T14:54:25.735Z,-83
2018-11-29T14:56:56.033Z,-83
2018-11-29T14:59:26.353Z,-83
2018-11-29T15:01:56.649Z,-83
2018-11-29T15:04:27.815Z,-83
2018-11-29T15:06:58.096Z,-83
2018-11-29T15:09:28.421Z,-83
2018-11-29T15:11:58.705Z,-83
2018-11-29T15:14:29.036Z,-83
2018-11-29T15:16:59.320Z,-83
2018-11-29T15:19:29.633Z,-81
2018-11-29T15:21:59.945Z,-82
2018-11-29T15:24:30.260Z,-81
2018-11-29T15:27:00.532Z,-81
2018-11-29T15:29:30.868Z,-82
2018-11-29T15:32:01.294Z,-82
2018-11-29T15:34:31.895Z,-82
2018-11-29T15:37:02.152Z,-82
2018-11-29T15:39:33.059Z,-82
2018-11-29T15:42:03.319Z,-81
2018-11-29T15:44:34.032Z,-81
2018-11-29T15:47:04.785Z,-81
2018-11-29T15:49:35.084Z,-81
2018-11-29T15:52:05.486Z,-81
2018-11-29T15:54:35.877Z,-81
2018-11-29T15:57:07.025Z,-81
2018-11-29T15:59:38.073Z,-81
2018-11-29T16:02:16.219Z,-81
2018-11-29T16:04:47.700Z,-81
2018-11-29T16:07:18.122Z,-81
2018-11-29T16:09:49.132Z,-81
2018-11-29T16:12:19.517Z,-82
2018-11-29T16:14:49.924Z,-81
2018-11-29T16:17:20.441Z,-81
2018-11-29T16:19:50.758Z,-80
2018-11-29T16:22:21.008Z,-80
2018-11-29T16:24:51.321Z,-81
2018-11-29T16:27:21.581Z,-81
2018-11-29T16:29:51.973Z,-81
2018-11-29T16:32:22.340Z,-81
2018-11-29T16:34:52.643Z,-81
2018-11-29T16:37:22.915Z,-81
2018-11-29T16:39:53.264Z,-84
2018-11-29T16:42:23.528Z,-80
2018-11-29T16:44:53.832Z,-81
2018-11-29T16:47:24.881Z,-85
2018-11-29T16:49:55.177Z,-82
2018-11-29T16:52:25.459Z,-81
2018-11-29T16:54:55.777Z,-81
2018-11-29T16:57:26.249Z,-80
2018-11-29T16:59:56.567Z,-82
2018-11-29T17:02:26.838Z,-81
2018-11-29T17:04:57.128Z,-80
2018-11-29T17:07:27.360Z,-81
2018-11-29T17:09:57.636Z,-80
2018-11-29T17:12:27.984Z,-80
2018-11-29T17:14:58.716Z,-83
2018-11-29T17:17:28.977Z,-80
2018-11-29T17:19:59.276Z,-81
2018-11-29T17:22:29.568Z,-81
2018-11-29T17:24:59.923Z,-82
2018-11-29T17:27:30.313Z,-81
2018-11-29T17:30:00.645Z,-84
2018-11-29T17:32:31.056Z,-82
2018-11-29T17:35:01.409Z,-83
2018-11-29T17:37:31.731Z,-82
2018-11-29T17:40:02.125Z,-81
2018-11-29T17:42:33.329Z,-83
2018-11-29T17:45:05.098Z,-82
2018-11-29T17:47:35.401Z,-80
2018-11-29T17:50:13.304Z,-80
2018-11-29T17:52:43.649Z,-81
2018-11-29T17:55:14.096Z,-80
2018-11-29T17:57:44.377Z,-80
2018-11-29T18:00:24.354Z,-80
2018-11-29T18:02:54.648Z,-80
2018-11-29T18:05:25.016Z,-80
2018-11-29T18:07:55.303Z,-80
2018-11-29T18:10:32.555Z,-80
2018-11-29T18:13:16.254Z,-80
2018-11-29T18:15:46.894Z,-80
2018-11-29T18:18:17.150Z,-80
2018-11-29T18:20:47.433Z,-80
2018-11-29T18:23:17.724Z,-80
2018-11-29T18:25:48.079Z,-80
2018-11-29T18:28:18.365Z,-80
2018-11-29T18:30:48.688Z,-79
2018-11-29T18:33:18.977Z,-80
2018-11-29T18:35:49.297Z,-79
2018-11-29T18:38:19.664Z,-79
2018-11-29T18:40:49.959Z,-81
2018-11-29T18:43:20.271Z,-81
2018-11-29T18:45:50.588Z,-81
2018-11-29T18:48:21.120Z,-80
2018-11-29T18:50:51.443Z,-80
2018-11-29T18:53:21.772Z,-80
2018-11-29T18:55:52.299Z,-80
2018-11-29T18:58:22.961Z,-80
2018-11-29T19:00:53.666Z,-79
2018-11-29T19:03:23.942Z,-78
2018-11-29T19:05:54.435Z,-78
2018-11-29T19:08:24.837Z,-78
2018-11-29T19:10:55.204Z,-78
2018-11-29T19:13:25.445Z,-78
2018-11-29T19:15:55.753Z,-78
2018-11-29T19:18:26.140Z,-78
2018-11-29T19:20:56.443Z,-78
2018-11-29T19:23:26.699Z,-78
2018-11-29T19:25:56.997Z,-78
2018-11-29T19:28:27.257Z,-78
2018-11-29T19:30:57.543Z,-80
2018-11-29T19:33:28.652Z,-79
2018-11-29T19:35:58.963Z,-79
2018-11-29T19:38:29.216Z,-79
2018-11-29T19:40:59.590Z,-79
2018-11-29T19:43:29.844Z,-78
2018-11-29T19:46:00.162Z,-80
2018-11-29T19:48:30.465Z,-80
2018-11-29T19:51:00.767Z,-79
2018-11-29T19:53:31.069Z,-79
2018-11-29T19:56:04.094Z,-78
2018-11-29T19:58:35.950Z,-79
2018-11-29T20:01:07.580Z,-79
2018-11-29T20:03:39.532Z,-79
2018-11-29T20:06:12.355Z,-79
2018-11-29T20:08:43.374Z,-79
2018-11-29T20:11:16.977Z,-79
2018-11-29T20:13:48.468Z,-79
2018-11-29T20:16:20.556Z,-79
2018-11-29T20:18:51.384Z,-79
2018-11-29T20:21:23.131Z,-79
2018-11-29T20:23:54.837Z,-79
2018-11-29T20:26:26.372Z,-79
2018-11-29T20:28:58.019Z,-78
2018-11-29T20:31:29.369Z,-79
2018-11-29T20:34:01.935Z,-78
2018-11-29T20:36:34.456Z,-78
2018-11-29T20:39:08.632Z,-78
2018-11-29T20:41:40.519Z,-79
2018-11-29T20:44:12.731Z,-79
2018-11-29T20:46:44.637Z,-79
2018-11-29T20:49:15.970Z,-79
2018-11-29T20:51:47.989Z,-80
2018-11-29T20:54:19.165Z,-80
2018-11-29T20:56:50.837Z,-80
2018-11-29T20:59:21.554Z,-80
2018-11-29T21:01:52.575Z,-80
2018-11-29T21:04:24.438Z,-80
2018-11-29T21:06:56.520Z,-80
2018-11-29T21:09:28.827Z,-80
2018-11-29T21:12:00.445Z,-80
2018-11-29T21:14:32.555Z,-80
2018-11-29T21:17:04.852Z,-80
2018-11-29T21:19:37.339Z,-80
2018-11-29T21:22:09.406Z,-80
2018-11-29T21:24:41.083Z,-80
2018-11-29T21:27:12.942Z,-80
2018-11-29T21:29:44.350Z,-80
2018-11-29T21:32:15.604Z,-80
2018-11-29T21:34:47.127Z,-80
2018-11-29T21:37:19.781Z,-80
2018-11-29T21:39:50.888Z,-80
2018-11-29T21:42:21.769Z,-78
2018-11-29T21:44:52.221Z,-79
2018-11-29T21:47:22.496Z,-79
2018-11-29T21:49:52.805Z,-79
2018-11-29T21:52:23.452Z,-79
2018-11-29T21:54:54.085Z,-79
2018-11-29T21:57:24.757Z,-79
2018-11-29T21:59:55.114Z,-79
2018-11-29T22:02:25.502Z,-79
2018-11-29T22:04:56.506Z,-79
2018-11-29T22:07:27.223Z,-79
2018-11-29T22:09:57.708Z,-81
2018-11-29T22:12:28.005Z,-79
2018-11-29T22:14:58.541Z,-79
2018-11-29T22:17:29.162Z,-79
2018-11-29T22:19:59.692Z,-80
2018-11-29T22:22:30.041Z,-79
2018-11-29T22:25:00.337Z,-79
2018-11-29T22:27:31.038Z,-79
2018-11-29T22:30:05.248Z,-79
2018-11-29T22:32:36.088Z,-79
2018-11-29T22:35:08.123Z,-79
2018-11-29T22:37:38.773Z,-79
2018-11-29T22:40:10.158Z,-79
2018-11-29T22:42:41.957Z,-79
2018-11-29T22:45:12.361Z,-79
2018-11-29T22:47:43.102Z,-79
2018-11-29T22:50:13.861Z,-79
2018-11-29T22:52:44.216Z,-79
2018-11-29T22:55:15.060Z,-78
2018-11-29T22:57:45.408Z,-78
2018-11-29T23:00:19.509Z,-79
2018-11-29T23:02:50.899Z,-80
2018-11-29T23:05:21.476Z,-79
2018-11-29T23:07:52.078Z,-78
2018-11-29T23:10:22.648Z,-79
2018-11-29T23:12:53.108Z,-79
2018-11-29T23:15:24.292Z,-79
2018-11-29T23:17:54.649Z,-79
2018-11-29T23:20:26.635Z,-79
2018-11-29T23:22:57.412Z,-79
2018-11-29T23:25:28.163Z,-79
2018-11-29T23:27:58.613Z,-79
2018-11-29T23:30:29.193Z,-79
2018-11-29T23:32:59.463Z,-78
2018-11-29T23:35:29.795Z,-78
2018-11-29T23:38:00.133Z,-78
2018-11-29T23:40:30.467Z,-78
2018-11-29T23:43:00.780Z,-78
2018-11-29T23:45:31.112Z,-78
2018-11-29T23:48:01.461Z,-79
2018-11-29T23:50:31.769Z,-79
2018-11-29T23:53:02.071Z,-79
2018-11-29T23:55:32.576Z,-79
2018-11-29T23:58:02.857Z,-79
